CW9274 Stavanger NO current weather conditions

sailwx.info

Wind from 017 at 1 knots gusting 5

Air temperature 13.3° C
Dewpoint 6.7° C

Last reported at 2019-Sep-20 20:04 UTC.
Time now 2019-Sep-20 20:23 UTC

Location: N 58°56' E 005°41'.
View on Google Maps.

See reports from other nearby stations

  
Tides and Currents Weather Stations Pressure Air Temp Water Temp Dewpoint Dewpoint Depression Visibility Wind Speed Wind Dir Waves Ship Positions
date/time (UTC)wind fromknots sea level pressurealtimeterstation pressurevisibilityair tempwater tempwave heightnotes
2019-Sep-20 20:04 017 1 gusting 5 13.3
2019-Sep-20 19:59 050 2 gusting 5 13.9
2019-Sep-20 19:54 021 2 gusting 6 14.4
2019-Sep-20 19:49 020 3 gusting 8 15.0
2019-Sep-20 19:44 023 2 gusting 6 15.0
2019-Sep-20 19:39 020 1 gusting 6 14.4
2019-Sep-20 19:34 060 4 gusting 8 14.4
2019-Sep-20 19:29 041 2 gusting 8 14.4
2019-Sep-20 19:24 056 3 gusting 10 14.4
2019-Sep-20 19:19 068 6 gusting 10 14.4
2019-Sep-20 19:14 073 1 gusting 7 14.4
2019-Sep-20 19:09 055 3 gusting 8 14.4
2019-Sep-20 19:04 057 5 gusting 13 14.4
2019-Sep-20 18:59 054 4 gusting 8 14.4
2019-Sep-20 18:54 044 4 gusting 8 14.4
2019-Sep-20 18:49 039 2 gusting 7 14.4
2019-Sep-20 18:44 034 2 gusting 10 14.4
2019-Sep-20 18:39 015 4 gusting 8 14.4
2019-Sep-20 18:34 040 2 gusting 11 14.4
2019-Sep-20 18:29 041 2 gusting 10 14.4
2019-Sep-20 18:24 024 2 gusting 7 14.4
2019-Sep-20 18:19 044 2 gusting 7 14.4
2019-Sep-20 18:14 030 2 gusting 6 14.4
2019-Sep-20 18:09 016 2 gusting 4 14.4
2019-Sep-20 18:04 007 2 gusting 6 14.4
2019-Sep-20 17:59 026 3 gusting 7 13.9
2019-Sep-20 17:54 012 3 gusting 7 13.9
2019-Sep-20 17:49 027 2 gusting 7 13.9
2019-Sep-20 17:44 007 2 gusting 5 13.9
2019-Sep-20 17:39 017 3 gusting 7 13.3
2019-Sep-20 17:34 002 2 gusting 5 13.3
2019-Sep-20 17:29 044 3 gusting 6 13.3
2019-Sep-20 17:24 12.8
2019-Sep-20 17:19 001 3 gusting 6 12.8
2019-Sep-20 17:14 012 2 gusting 6 12.8
2019-Sep-20 17:09 018 2 gusting 5 12.8
2019-Sep-20 17:04 030 2 gusting 6 12.8
2019-Sep-20 16:59 017 1 gusting 4 12.8
2019-Sep-20 16:54 036 1 gusting 2 12.2
2019-Sep-20 16:49 015 2 gusting 4 12.2
2019-Sep-20 16:44 033 1 gusting 4 11.7
2019-Sep-20 16:39 027 1 gusting 4 11.7
2019-Sep-20 16:34 014 2 gusting 4 11.7
2019-Sep-20 16:29 012 1 gusting 4 11.7
2019-Sep-20 16:24 017 1 gusting 2 11.7
2019-Sep-20 16:19 016 1 gusting 2 11.7
2019-Sep-20 16:14 009 1 gusting 2 11.1
2019-Sep-20 16:09 011 1 gusting 2 11.1
2019-Sep-20 16:04 017 0 gusting 2 11.1
2019-Sep-20 15:59 009 1 gusting 2 10.6
2019-Sep-20 15:54 10.6
2019-Sep-20 15:49 10.6
2019-Sep-20 15:44 10.6
2019-Sep-20 15:39 10.6
2019-Sep-20 15:34 10.6
2019-Sep-20 15:29 10.6
2019-Sep-20 15:24 10.0
2019-Sep-20 15:19 017 0 gusting 2 10.0
2019-Sep-20 15:14 9.4
2019-Sep-20 15:09 8.9
2019-Sep-20 15:04 8.3
2019-Sep-20 14:59 7.8
2019-Sep-20 14:54 7.8
2019-Sep-20 14:49 7.8
2019-Sep-20 14:44 7.2
2019-Sep-20 14:39 7.2
2019-Sep-20 14:34 7.2
2019-Sep-20 14:29 7.2
2019-Sep-20 14:24 7.2
2019-Sep-20 14:19 7.2
2019-Sep-20 14:14 7.2
2019-Sep-20 14:09 7.2
2019-Sep-20 14:04 7.2
2019-Sep-20 13:59 7.2
2019-Sep-20 13:54 7.2
2019-Sep-20 13:49 7.2
2019-Sep-20 13:44 6.7
2019-Sep-20 13:39 300 0 gusting 2 6.7
2019-Sep-20 13:34 280 0 gusting 1 6.7
2019-Sep-20 13:29 280 0 gusting 2 6.1
2019-Sep-20 13:24 280 0 gusting 2 6.1
2019-Sep-20 13:19 280 0 gusting 1 6.1
2019-Sep-20 13:14 280 0 gusting 1 6.1
2019-Sep-20 13:09 280 0 gusting 1 6.1
2019-Sep-20 13:04 280 0 gusting 1 6.1
2019-Sep-20 12:59 280 0 gusting 0 6.1
2019-Sep-20 12:54 280 6.1
2019-Sep-20 12:49 280 0 gusting 2 6.1
2019-Sep-20 12:44 280 0 gusting 2 6.1
2019-Sep-20 12:39 280 2 gusting 2 6.1
2019-Sep-20 12:34 286 1 gusting 4 6.1
2019-Sep-20 12:29 346 1 gusting 2 6.1
2019-Sep-20 12:24 5.6
2019-Sep-20 12:19 5.6
2019-Sep-20 12:14 6.1
2019-Sep-20 12:09 6.1
2019-Sep-20 12:04 6.1
2019-Sep-20 11:59 6.1
2019-Sep-20 11:54 6.1
2019-Sep-20 11:49 6.1
2019-Sep-20 11:44 6.1
2019-Sep-20 11:39 6.7
2019-Sep-20 11:34 7.2
2019-Sep-20 11:29 7.8
2019-Sep-20 11:24 8.3
2019-Sep-20 11:19 8.3
2019-Sep-20 11:14 016 1 gusting 2 8.3
2019-Sep-20 11:09 017 1 gusting 4 8.3
2019-Sep-20 11:04 026 1 gusting 4 8.3
2019-Sep-20 10:59 017 2 gusting 6 8.3
2019-Sep-20 10:54 012 2 gusting 6 8.3
2019-Sep-20 10:49 020 3 gusting 6 8.3
2019-Sep-20 10:44 016 2 gusting 6 8.3
2019-Sep-20 10:39 016 2 gusting 6 8.3
2019-Sep-20 10:34 019 2 gusting 6 8.3
2019-Sep-20 10:29 006 2 gusting 7 8.3
2019-Sep-20 10:24 013 4 gusting 8 7.8
2019-Sep-20 10:19 009 4 gusting 7 7.8
2019-Sep-20 10:14 005 2 gusting 6 7.8
2019-Sep-20 10:09 015 2 gusting 8 7.8
2019-Sep-20 10:04 013 4 gusting 8 7.8
2019-Sep-20 09:59 009 4 gusting 8 8.3
2019-Sep-20 09:54 002 3 gusting 8 8.3
2019-Sep-20 09:49 006 4 gusting 7 8.3
2019-Sep-20 09:44 007 4 gusting 10 8.3
2019-Sep-20 09:39 001 3 gusting 6 8.3
2019-Sep-20 09:34 010 3 gusting 7 8.3
2019-Sep-20 09:29 009 4 gusting 8 8.9
2019-Sep-20 09:24 010 4 gusting 10 8.9
2019-Sep-20 09:19 018 2 gusting 6 8.9
2019-Sep-20 09:14 011 4 gusting 10 9.4
2019-Sep-20 09:09 011 3 gusting 7 9.4
2019-Sep-20 09:04 006 2 gusting 10 9.4
2019-Sep-20 08:59 007 2 gusting 6 9.4
2019-Sep-20 08:54 002 2 gusting 4 10.0
2019-Sep-20 08:49 006 1 gusting 4 10.0
2019-Sep-20 08:44 001 1 gusting 5 10.0
2019-Sep-20 08:39 10.0
2019-Sep-20 08:34 001 2 gusting 4 10.0
2019-Sep-20 08:29 10.0
2019-Sep-20 08:24 10.0
2019-Sep-20 08:19 10.0
2019-Sep-20 08:14 9.4
2019-Sep-20 08:09 9.4
2019-Sep-20 08:04 328 1 gusting 2 9.4
2019-Sep-20 07:59 327 1 gusting 2 8.9
2019-Sep-20 07:54 325 0 gusting 2 8.9
2019-Sep-20 07:49 330 1 gusting 4 8.9
2019-Sep-20 07:44 333 1 gusting 4 8.3
2019-Sep-20 07:39 326 1 gusting 2 8.3
2019-Sep-20 07:34 319 1 gusting 2 8.3
2019-Sep-20 07:29 317 1 gusting 2 8.3
2019-Sep-20 07:24 288 1 gusting 2 8.3
2019-Sep-20 07:19 285 1 gusting 2 8.3
2019-Sep-20 07:14 277 0 gusting 1 8.3
2019-Sep-20 07:09 277 1 gusting 2 8.3
2019-Sep-20 07:04 277 1 gusting 2 8.3
2019-Sep-20 06:59 277 1 gusting 2 7.8
2019-Sep-20 06:54 277 0 gusting 2 7.8
2019-Sep-20 06:49 275 1 gusting 2 7.8
2019-Sep-20 06:44 275 1 gusting 2 8.3
2019-Sep-20 06:39 277 0 gusting 2 8.3
2019-Sep-20 06:34 277 0 gusting 1 8.3
2019-Sep-20 06:29 277 0 gusting 2 8.3
2019-Sep-20 06:24 277 0 gusting 2 7.8
2019-Sep-20 06:19 276 1 gusting 2 7.8
2019-Sep-20 06:14 276 1 gusting 2 7.8
2019-Sep-20 06:09 280 2 gusting 2 7.8
2019-Sep-20 06:04 279 1 gusting 2 7.8
2019-Sep-20 05:59 280 1 gusting 2 7.8
2019-Sep-20 05:54 274 1 gusting 2 7.8
2019-Sep-20 05:49 280 1 gusting 2 7.8
2019-Sep-20 05:44 273 1 gusting 2 7.8
2019-Sep-20 05:39 282 1 gusting 2 7.8
2019-Sep-20 05:34 279 0 gusting 2 7.8
2019-Sep-20 05:29 273 0 gusting 1 7.8
2019-Sep-20 05:24 271 0 gusting 2 7.8
2019-Sep-20 05:19 265 1 gusting 2 8.3
2019-Sep-20 05:14 264 1 gusting 2 8.3
2019-Sep-20 05:09 264 1 gusting 2 8.3
2019-Sep-20 05:04 264 0 gusting 2 7.8
2019-Sep-20 04:59 264 1 gusting 2 7.8
2019-Sep-20 04:54 160 1 gusting 2 7.2
2019-Sep-20 04:49 127 0 gusting 1 7.2
2019-Sep-20 04:44 127 0 gusting 1 7.2
2019-Sep-20 04:39 127 0 gusting 0 7.2
2019-Sep-20 04:34 127 7.2
2019-Sep-20 04:29 127 7.2
2019-Sep-20 04:24 127 7.2
2019-Sep-20 04:19 127 7.8
2019-Sep-20 04:14 127 7.8
2019-Sep-20 04:09 007 7.8
2019-Sep-20 04:04 7.8
2019-Sep-20 03:59 7.8
2019-Sep-20 03:54 7.8
2019-Sep-20 03:49 8.3
2019-Sep-20 03:44 7.8
2019-Sep-20 03:39 8.3
2019-Sep-20 03:34 8.3
2019-Sep-20 03:29 8.3
2019-Sep-20 03:24 8.3
2019-Sep-20 03:19 8.3
2019-Sep-20 03:14 8.3
2019-Sep-20 03:09 8.9
2019-Sep-20 03:04 8.9
2019-Sep-20 02:59 8.9
2019-Sep-20 02:54 8.9
2019-Sep-20 02:49 8.9
2019-Sep-20 02:39 8.9
2019-Sep-20 02:34 9.4
2019-Sep-20 02:29 9.4
2019-Sep-20 02:24 9.4
2019-Sep-20 02:19 9.4
2019-Sep-20 02:14 10.0
2019-Sep-20 02:09 10.0
2019-Sep-20 02:04 10.0
2019-Sep-20 01:59 10.0
2019-Sep-20 01:54 10.6
2019-Sep-20 01:49 10.6
2019-Sep-20 01:44 10.6
2019-Sep-20 01:39 11.1
2019-Sep-20 01:34 11.1
2019-Sep-20 01:29 11.7
2019-Sep-20 01:24 11.7
2019-Sep-20 01:19 146 12.2
2019-Sep-20 01:14 12.2
2019-Sep-20 01:09 147 12.8
2019-Sep-20 01:04 147 12.8
2019-Sep-20 00:59 146 12.8
2019-Sep-20 00:54 146 0 gusting 1 12.8
2019-Sep-20 00:49 146 12.8
2019-Sep-20 00:44 146 13.3
2019-Sep-20 00:39 156 0 gusting 2 13.3
2019-Sep-20 00:34 160 0 gusting 2 13.3
2019-Sep-20 00:29 158 1 gusting 2 13.3
2019-Sep-20 00:24 159 0 gusting 2 13.3
2019-Sep-20 00:19 159 1 gusting 2 13.9
2019-Sep-20 00:14 159 0 gusting 1 13.9
2019-Sep-20 00:09 159 0 gusting 2 13.9
2019-Sep-20 00:04 159 1 gusting 2 13.9
2019-Sep-19 23:59 161 0 gusting 2 13.9
2019-Sep-19 23:54 160 0 gusting 2 13.9
2019-Sep-19 23:49 156 1 gusting 2 13.9
2019-Sep-19 23:44 159 1 gusting 2 13.9
2019-Sep-19 23:39 157 1 gusting 6 14.4
2019-Sep-19 23:34 138 2 gusting 6 14.4
2019-Sep-19 23:29 128 1 gusting 2 14.4
2019-Sep-19 23:24 162 1 gusting 2 14.4
2019-Sep-19 23:19 166 1 gusting 2 14.4
2019-Sep-19 23:14 168 1 gusting 4 14.4
2019-Sep-19 23:09 163 2 gusting 5 14.4
2019-Sep-19 23:04 121 2 gusting 5 14.4
2019-Sep-19 22:59 122 1 gusting 6 14.4
2019-Sep-19 22:54 162 0 gusting 6 14.4
2019-Sep-19 22:49 123 1 gusting 4 14.4
2019-Sep-19 22:44 162 1 gusting 2 14.4
2019-Sep-19 22:39 152 1 gusting 2 14.4
2019-Sep-19 22:34 164 1 gusting 4 14.4
2019-Sep-19 22:29 107 2 gusting 6 14.4
2019-Sep-19 22:24 163 0 gusting 5 14.4
2019-Sep-19 22:19 159 2 gusting 4 14.4
2019-Sep-19 22:14 135 2 gusting 6 14.4
2019-Sep-19 22:09 128 2 gusting 4 14.4
2019-Sep-19 22:04 112 1 gusting 5 13.9
2019-Sep-19 21:59 116 1 gusting 8 13.9
2019-Sep-19 21:54 140 0 gusting 2 13.9
2019-Sep-19 21:49 161 1 gusting 4 13.9
2019-Sep-19 21:44 161 0 gusting 6 13.9
2019-Sep-19 21:39 160 1 gusting 5 14.4
2019-Sep-19 21:34 130 1 gusting 4 14.4
2019-Sep-19 21:29 163 1 gusting 6 14.4
2019-Sep-19 21:24 134 1 gusting 2 14.4
2019-Sep-19 21:19 131 1 gusting 4 14.4
2019-Sep-19 21:14 13.9
2019-Sep-19 21:09 13.9
2019-Sep-19 21:04 156 1 gusting 4 13.3
2019-Sep-19 20:59 167 2 gusting 4 13.3
2019-Sep-19 20:54 132 1 gusting 5 13.3
2019-Sep-19 20:49 131 1 gusting 6 13.3
2019-Sep-19 20:44 109 1 gusting 2 13.3
2019-Sep-19 20:39 13.3
2019-Sep-19 20:34 133 2 gusting 5 13.3
2019-Sep-19 20:29 117 2 gusting 6 13.3
2019-Sep-19 20:24 129 2 gusting 6 13.3
2019-Sep-19 20:19 153 1 gusting 4 13.3
2019-Sep-19 20:14 161 2 gusting 6 12.8
2019-Sep-19 20:09 151 1 gusting 4 12.8
2019-Sep-19 20:04 128 1 gusting 2 12.8
2019-Sep-19 19:59 148 1 gusting 6 12.8
2019-Sep-19 19:54 011 1 gusting 5 12.8
2019-Sep-19 19:49 151 1 gusting 5 12.8
2019-Sep-19 19:44 160 0 gusting 4 12.8
2019-Sep-19 19:39 121 2 gusting 7 12.8
2019-Sep-19 19:34 123 2 gusting 5 12.8
2019-Sep-19 19:29 120 1 gusting 5 13.3
2019-Sep-19 19:24 12.8
2019-Sep-19 19:19 163 1 gusting 4 12.8
2019-Sep-19 19:14 147 1 gusting 2 12.2
2019-Sep-19 19:09 117 2 gusting 6 12.2
2019-Sep-19 19:04 152 1 gusting 4 12.2
2019-Sep-19 18:59 190 1 gusting 2 12.2
2019-Sep-19 18:54 110 1 gusting 6 12.2
2019-Sep-19 18:49 143 0 gusting 2 11.7
2019-Sep-19 18:44 120 0 gusting 2 11.7
2019-Sep-19 18:39 151 0 gusting 2 11.7
2019-Sep-19 18:34 143 0 gusting 2 11.1
2019-Sep-19 18:29 151 0 gusting 1 11.1
2019-Sep-19 18:24 157 0 gusting 1 11.1
2019-Sep-19 18:19 104 1 gusting 2 11.1
2019-Sep-19 18:14 120 1 gusting 2 11.1
2019-Sep-19 18:09 119 0 gusting 2 11.1
2019-Sep-19 18:04 123 0 gusting 2 11.1
2019-Sep-19 17:59 186 0 gusting 2 11.1
2019-Sep-19 17:54 232 11.1
2019-Sep-19 17:49 232 0 gusting 1 11.1
2019-Sep-19 17:44 232 0 gusting 1 10.6
2019-Sep-19 17:39 232 0 gusting 1 10.6
2019-Sep-19 17:34 232 0 gusting 2 10.6
2019-Sep-19 17:29 232 1 gusting 2 10.6
2019-Sep-19 17:24 236 1 gusting 2 10.6
2019-Sep-19 17:19 237 1 gusting 2 10.0
2019-Sep-19 17:14 239 0 gusting 2 10.0
2019-Sep-19 17:09 239 1 gusting 2 9.4
2019-Sep-19 17:04 239 0 gusting 2 9.4
2019-Sep-19 16:59 239 2 gusting 4 9.4
2019-Sep-19 16:54 245 2 gusting 4 9.4
2019-Sep-19 16:49 228 2 gusting 4 9.4
2019-Sep-19 16:44 9.4
2019-Sep-19 16:39 9.4
2019-Sep-19 16:34 8.9
2019-Sep-19 16:29 9.4
2019-Sep-19 16:24 8.9
2019-Sep-19 16:19 8.9
2019-Sep-19 16:14 8.9
2019-Sep-19 16:09 8.9
2019-Sep-19 16:04 8.9
2019-Sep-19 15:59 8.9
2019-Sep-19 15:54 8.9
2019-Sep-19 15:49 8.3
2019-Sep-19 15:44 8.3
2019-Sep-19 15:39 8.3
2019-Sep-19 15:34 8.3
2019-Sep-19 15:29 8.3
2019-Sep-19 15:24 8.3
2019-Sep-19 15:19 7.8
2019-Sep-19 15:14 7.8
2019-Sep-19 15:09 7.8
2019-Sep-19 15:04 7.8
2019-Sep-19 14:59 7.8
2019-Sep-19 14:54 7.8
2019-Sep-19 14:49 7.8
2019-Sep-19 14:44 7.2
2019-Sep-19 14:39 7.2
2019-Sep-19 14:34 7.2
2019-Sep-19 14:29 7.2
2019-Sep-19 14:24 7.2
2019-Sep-19 14:19 6.7
2019-Sep-19 14:14 6.7
2019-Sep-19 14:09 6.7
2019-Sep-19 14:04 6.7
2019-Sep-19 13:59 6.7
2019-Sep-19 13:54 6.7
2019-Sep-19 13:49 6.7
2019-Sep-19 13:44 6.7
2019-Sep-19 13:39 6.7
2019-Sep-19 13:34 6.7
2019-Sep-19 13:29 6.7
2019-Sep-19 13:24 6.7
2019-Sep-19 13:19 6.7
2019-Sep-19 13:14 6.7
2019-Sep-19 13:09 6.7
2019-Sep-19 13:04 6.7
2019-Sep-19 12:59 6.7
2019-Sep-19 12:54 6.7
2019-Sep-19 12:49 6.7
2019-Sep-19 12:44 6.7
2019-Sep-19 12:39 6.7
2019-Sep-19 12:34 6.7
2019-Sep-19 12:29 6.7
2019-Sep-19 12:24 6.7
2019-Sep-19 12:19 6.7
2019-Sep-19 12:14 6.7
2019-Sep-19 12:09 6.7
2019-Sep-19 12:04 6.7
2019-Sep-19 11:59 6.7
2019-Sep-19 11:54 6.7
2019-Sep-19 11:49 6.7
2019-Sep-19 11:44 6.7
2019-Sep-19 11:39 6.7
2019-Sep-19 11:34 6.7
2019-Sep-19 11:29 6.7
2019-Sep-19 11:24 6.7
2019-Sep-19 11:19 6.7
2019-Sep-19 11:14 6.7
2019-Sep-19 11:09 6.7
2019-Sep-19 11:04 6.7
2019-Sep-19 10:59 6.7
2019-Sep-19 10:54 6.7
2019-Sep-19 10:49 6.7
2019-Sep-19 10:44 6.7
2019-Sep-19 10:39 6.7
2019-Sep-19 10:34 6.7
2019-Sep-19 10:29 6.7
2019-Sep-19 10:24 6.7
2019-Sep-19 10:19 008 0 gusting 2 6.7
2019-Sep-19 10:14 6.7
2019-Sep-19 10:09 6.7
2019-Sep-19 10:04 6.7
2019-Sep-19 09:59 009 0 gusting 2 6.7
2019-Sep-19 09:54 6.7
2019-Sep-19 09:49 6.7
2019-Sep-19 09:44 6.7
2019-Sep-19 09:39 6.7
2019-Sep-19 09:34 6.7
2019-Sep-19 09:29 6.7
2019-Sep-19 09:24 6.7
2019-Sep-19 09:19 6.7
2019-Sep-19 09:14 6.7
2019-Sep-19 09:09 6.7
2019-Sep-19 09:04 6.7
2019-Sep-19 08:59 002 1 gusting 4 6.7
2019-Sep-19 08:54 002 2 gusting 5 6.7
2019-Sep-19 08:49 004 2 gusting 6 6.7
2019-Sep-19 08:44 6.7
2019-Sep-19 08:39 004 1 gusting 5 6.7
2019-Sep-19 08:34 005 2 gusting 6 6.7
2019-Sep-19 08:29 7.2
2019-Sep-19 08:24 003 2 gusting 7 7.2
2019-Sep-19 08:19 016 2 gusting 6 7.2
2019-Sep-19 08:14 016 2 gusting 8 7.2
2019-Sep-19 08:09 005 3 gusting 6 7.2
2019-Sep-19 08:04 006 4 gusting 8 7.2
2019-Sep-19 07:59 017 3 gusting 7 7.2
2019-Sep-19 07:54 016 4 gusting 10 7.2
2019-Sep-19 07:49 004 4 gusting 7 7.2
2019-Sep-19 07:44 013 4 gusting 10 7.2
2019-Sep-19 07:39 010 3 gusting 10 7.2
2019-Sep-19 07:34 017 3 gusting 7 7.2
2019-Sep-19 07:29 004 2 gusting 6 7.2
2019-Sep-19 07:24 004 3 gusting 8 7.2
2019-Sep-19 07:19 011 4 gusting 10 7.2
2019-Sep-19 07:14 7.2
2019-Sep-19 07:09 008 2 gusting 6 7.2
2019-Sep-19 07:04 007 4 gusting 8 7.2
2019-Sep-19 06:59 012 4 gusting 8 7.2
2019-Sep-19 06:54 005 2 gusting 7 7.2
2019-Sep-19 06:49 001 2 gusting 5 7.2
2019-Sep-19 06:44 7.2
2019-Sep-19 06:39 006 2 gusting 8 7.2
2019-Sep-19 06:34 001 2 gusting 8 7.2
2019-Sep-19 06:29 7.8
2019-Sep-19 06:24 001 2 gusting 6 7.8
2019-Sep-19 06:19 7.8
2019-Sep-19 06:14 7.8
2019-Sep-19 06:09 8.3
2019-Sep-19 06:04 8.3
2019-Sep-19 05:59 8.3
2019-Sep-19 05:54 021 1 gusting 4 8.9
2019-Sep-19 05:49 035 1 gusting 2 8.9
2019-Sep-19 05:44 046 2 gusting 6 8.9
2019-Sep-19 05:39 037 2 gusting 6 9.4
2019-Sep-19 05:34 041 2 gusting 5 9.4
2019-Sep-19 05:29 039 2 gusting 4 9.4
2019-Sep-19 05:24 048 2 gusting 6 9.4
2019-Sep-19 05:19 049 2 gusting 6 10.0
2019-Sep-19 05:14 050 3 gusting 7 10.0
2019-Sep-19 05:09 047 1 gusting 2 10.6
2019-Sep-19 05:04 072 1 gusting 2 10.6
2019-Sep-19 04:59 072 0 gusting 2 10.0
2019-Sep-19 04:54 072 1 gusting 2 10.0
2019-Sep-19 04:49 073 1 gusting 2 10.0
2019-Sep-19 04:44 074 1 gusting 2 10.0
2019-Sep-19 04:39 075 1 gusting 2 10.0
2019-Sep-19 04:34 079 0 gusting 2 10.0
2019-Sep-19 04:29 079 0 gusting 1 10.0
2019-Sep-19 04:24 079 1 gusting 2 10.0
2019-Sep-19 04:19 079 1 gusting 2 10.0
2019-Sep-19 04:14 079 0 gusting 1 10.6
2019-Sep-19 04:09 079 0 gusting 2 10.6
2019-Sep-19 04:04 079 1 gusting 2 10.6
2019-Sep-19 03:59 080 1 gusting 2 10.6
2019-Sep-19 03:54 080 1 gusting 2 10.6
2019-Sep-19 03:49 085 1 gusting 2 10.6
2019-Sep-19 03:44 090 1 gusting 2 10.6
2019-Sep-19 03:39 090 0 gusting 1 10.6
2019-Sep-19 03:34 090 0 gusting 2 10.6
2019-Sep-19 03:29 090 10.6
2019-Sep-19 03:24 090 10.6
2019-Sep-19 03:19 090 11.1
2019-Sep-19 03:14 090 1 gusting 2 10.6
2019-Sep-19 03:09 086 2 gusting 5 10.6
2019-Sep-19 03:04 076 1 gusting 2 10.6
2019-Sep-19 02:59 087 0 gusting 2 10.6
2019-Sep-19 02:54 093 1 gusting 2 10.6
2019-Sep-19 02:49 100 1 gusting 2 10.6
2019-Sep-19 02:44 093 1 gusting 2 10.6
2019-Sep-19 02:39 086 1 gusting 2 10.6
2019-Sep-19 02:34 088 1 gusting 2 10.6
2019-Sep-19 02:29 085 1 gusting 2 10.6
2019-Sep-19 02:24 11.1
2019-Sep-19 02:19 11.1
2019-Sep-19 02:14 11.1
2019-Sep-19 02:09 11.1
2019-Sep-19 02:04 11.1
2019-Sep-19 01:59 11.1
2019-Sep-19 01:54 11.7
2019-Sep-19 01:49 094 0 gusting 2 11.7
2019-Sep-19 01:44 122 1 gusting 2 11.7
2019-Sep-19 01:39 123 0 gusting 2 11.7
2019-Sep-19 01:34 123 0 gusting 1 11.7
2019-Sep-19 01:29 123 0 gusting 1 11.7
2019-Sep-19 01:24 123 0 gusting 1 11.7
2019-Sep-19 01:19 123 0 gusting 1 12.2
2019-Sep-19 01:14 123 0 gusting 0 12.2
2019-Sep-19 01:09 123 12.2
2019-Sep-19 01:04 123 12.2
2019-Sep-19 00:59 123 12.2
2019-Sep-19 00:54 122 12.2
2019-Sep-19 00:49 123 0 gusting 1 12.2
2019-Sep-19 00:44 122 0 gusting 1 12.2
2019-Sep-19 00:39 122 0 gusting 1 12.8
2019-Sep-19 00:34 120 0 gusting 2 12.8
2019-Sep-19 00:29 120 0 gusting 1 12.8
2019-Sep-19 00:24 120 0 gusting 2 12.8
2019-Sep-19 00:19 120 0 gusting 2 12.8
2019-Sep-19 00:14 120 12.8
2019-Sep-19 00:09 120 0 gusting 2 13.3
2019-Sep-19 00:04 121 0 gusting 2 13.3
2019-Sep-18 23:59 110 0 gusting 2 13.3
2019-Sep-18 23:54 107 0 gusting 0 13.3
2019-Sep-18 23:49 107 13.3
2019-Sep-18 23:44 107 13.3
2019-Sep-18 23:39 107 13.9
2019-Sep-18 23:34 107 13.3
2019-Sep-18 23:29 107 13.3
2019-Sep-18 23:24 107 0 gusting 2 13.3
2019-Sep-18 23:19 107 1 gusting 2 13.3
2019-Sep-18 23:14 123 13.9
2019-Sep-18 23:09 123 13.9
2019-Sep-18 23:04 120 1 gusting 4 13.9
2019-Sep-18 22:59 119 1 gusting 5 13.9
2019-Sep-18 22:54 109 1 gusting 2 13.9
2019-Sep-18 22:49 115 1 gusting 5 13.9
2019-Sep-18 22:44 111 2 gusting 6 13.9
2019-Sep-18 22:39 115 1 gusting 5 13.9
2019-Sep-18 22:34 100 3 gusting 6 13.9
2019-Sep-18 22:29 108 1 gusting 5 13.9
2019-Sep-18 22:24 103 2 gusting 2 13.9
2019-Sep-18 22:19 105 1 gusting 5 13.9
2019-Sep-18 22:14 085 2 gusting 6 13.9
2019-Sep-18 22:09 112 1 gusting 2 13.9
2019-Sep-18 22:04 127 0 gusting 2 14.4
2019-Sep-18 21:59 101 1 gusting 5 14.4
2019-Sep-18 21:54 118 0 gusting 1 14.4
2019-Sep-18 21:49 137 0 gusting 2 14.4
2019-Sep-18 21:44 145 0 gusting 1 14.4
2019-Sep-18 21:39 141 0 gusting 1 14.4
2019-Sep-18 21:34 135 1 gusting 2 15.0
2019-Sep-18 21:29 119 0 gusting 2 14.4
2019-Sep-18 21:24 165 0 gusting 2 14.4
2019-Sep-18 21:19 117 1 gusting 2 14.4
2019-Sep-18 21:14 227 1 gusting 2 15.0
2019-Sep-18 21:09 130 0 gusting 2 15.0
2019-Sep-18 21:04 128 1 gusting 2 15.0
2019-Sep-18 20:59 106 1 gusting 5 15.0
2019-Sep-18 20:54 132 0 gusting 1 14.4
2019-Sep-18 20:49 087 0 gusting 6 14.4
2019-Sep-18 20:44 099 1 gusting 2 14.4
2019-Sep-18 20:39 110 1 gusting 6 13.9
2019-Sep-18 20:34 110 2 gusting 5 13.9
2019-Sep-18 20:29 123 0 gusting 4 13.3
2019-Sep-18 20:24 101 4 gusting 7 13.3
2019-Sep-18 20:19 082 1 gusting 5 13.3
2019-Sep-18 20:14 113 1 gusting 6 13.9
2019-Sep-18 20:09 104 4 gusting 6 13.9
2019-Sep-18 20:04 108 0 gusting 5 14.4